sensor_id;sensor_type;location;lat;lon;timestamp;pressure;altitude;pressure_sealevel;temperature;humidity
15914;BME280;8055;51.930;8.840;2022-12-18T00:01:28;100849.44;;;-8.13;100.00
15914;BME280;8055;51.930;8.840;2022-12-18T00:03:55;100860.78;;;-8.10;100.00
15914;BME280;8055;51.930;8.840;2022-12-18T00:06:22;100862.50;;;-8.09;100.00
15914;BME280;8055;51.930;8.840;2022-12-18T00:08:48;100861.63;;;-8.08;100.00
15914;BME280;8055;51.930;8.840;2022-12-18T00:11:15;100859.81;;;-8.06;100.00
15914;BME280;8055;51.930;8.840;2022-12-18T00:13:41;100871.25;;;-8.08;100.00
15914;BME280;8055;51.930;8.840;2022-12-18T00:16:10;100862.50;;;-8.09;100.00
15914;BME280;8055;51.930;8.840;2022-12-18T00:18:36;100859.00;;;-8.09;100.00
15914;BME280;8055;51.930;8.840;2022-12-18T00:21:04;100850.34;;;-8.16;100.00
15914;BME280;8055;51.930;8.840;2022-12-18T00:23:31;100852.94;;;-8.13;100.00
15914;BME280;8055;51.930;8.840;2022-12-18T00:26:01;100847.66;;;-8.11;100.00
15914;BME280;8055;51.930;8.840;2022-12-18T00:28:27;100846.78;;;-8.13;100.00
15914;BME280;8055;51.930;8.840;2022-12-18T00:31:10;100855.50;;;-8.10;100.00
15914;BME280;8055;51.930;8.840;2022-12-18T00:33:37;100859.94;;;-8.12;100.00
15914;BME280;8055;51.930;8.840;2022-12-18T00:36:07;100857.47;;;-8.20;100.00
15914;BME280;8055;51.930;8.840;2022-12-18T00:38:34;100871.47;;;-8.18;100.00
15914;BME280;8055;51.930;8.840;2022-12-18T00:41:00;100875.91;;;-8.21;100.00
15914;BME280;8055;51.930;8.840;2022-12-18T00:43:26;100885.59;;;-8.22;100.00
15914;BME280;8055;51.930;8.840;2022-12-18T00:45:52;100873.34;;;-8.24;100.00
15914;BME280;8055;51.930;8.840;2022-12-18T00:48:17;100870.81;;;-8.30;100.00
15914;BME280;8055;51.930;8.840;2022-12-18T00:50:42;100863.81;;;-8.31;100.00
15914;BME280;8055;51.930;8.840;2022-12-18T00:53:08;100866.56;;;-8.38;100.00
15914;BME280;8055;51.930;8.840;2022-12-18T00:55:39;100864.91;;;-8.40;100.00
15914;BME280;8055;51.930;8.840;2022-12-18T00:58:07;100872.84;;;-8.42;100.00
15914;BME280;8055;51.930;8.840;2022-12-18T01:00:32;100871.94;;;-8.41;100.00
15914;BME280;8055;51.930;8.840;2022-12-18T01:02:58;100869.19;;;-8.36;100.00
15914;BME280;8055;51.930;8.840;2022-12-18T01:05:23;100869.97;;;-8.31;100.00
15914;BME280;8055;51.930;8.840;2022-12-18T01:07:49;100855.81;;;-8.25;100.00
15914;BME280;8055;51.930;8.840;2022-12-18T01:10:14;100858.38;;;-8.22;100.00
15914;BME280;8055;51.930;8.840;2022-12-18T01:12:40;100850.47;;;-8.21;100.00
15914;BME280;8055;51.930;8.840;2022-12-18T01:15:06;100857.53;;;-8.23;100.00
15914;BME280;8055;51.930;8.840;2022-12-18T01:17:32;100853.97;;;-8.22;100.00
15914;BME280;8055;51.930;8.840;2022-12-18T01:19:57;100862.72;;;-8.20;100.00
15914;BME280;8055;51.930;8.840;2022-12-18T01:22:23;100856.66;;;-8.25;100.00
15914;BME280;8055;51.930;8.840;2022-12-18T01:24:48;100855.91;;;-8.30;100.00
15914;BME280;8055;51.930;8.840;2022-12-18T01:27:13;100851.50;;;-8.29;100.00
15914;BME280;8055;51.930;8.840;2022-12-18T01:29:39;100854.13;;;-8.29;100.00
15914;BME280;8055;51.930;8.840;2022-12-18T01:32:04;100850.53;;;-8.25;100.00
15914;BME280;8055;51.930;8.840;2022-12-18T01:34:30;100851.50;;;-8.29;100.00
15914;BME280;8055;51.930;8.840;2022-12-18T01:36:55;100851.44;;;-8.26;100.00
15914;BME280;8055;51.930;8.840;2022-12-18T01:39:20;100852.31;;;-8.27;100.00
15914;BME280;8055;51.930;8.840;2022-12-18T01:41:46;100847.00;;;-8.24;100.00
15914;BME280;8055;51.930;8.840;2022-12-18T01:47:15;100850.53;;;-8.24;100.00
15914;BME280;8055;51.930;8.840;2022-12-18T01:49:43;100853.22;;;-8.27;100.00
15914;BME280;8055;51.930;8.840;2022-12-18T01:52:08;100846.19;;;-8.26;100.00
15914;BME280;8055;51.930;8.840;2022-12-18T01:54:34;100859.41;;;-8.29;100.00
15914;BME280;8055;51.930;8.840;2022-12-18T01:56:59;100864.69;;;-8.31;100.00
15914;BME280;8055;51.930;8.840;2022-12-18T01:59:26;100868.19;;;-8.29;100.00
15914;BME280;8055;51.930;8.840;2022-12-18T02:01:53;100860.28;;;-8.30;100.00
15914;BME280;8055;51.930;8.840;2022-12-18T02:04:20;100848.94;;;-8.32;100.00
15914;BME280;8055;51.930;8.840;2022-12-18T02:06:53;100848.94;;;-8.32;100.00
15914;BME280;8055;51.930;8.840;2022-12-18T02:09:24;100848.94;;;-8.34;100.00
15914;BME280;8055;51.930;8.840;2022-12-18T02:14:42;100828.91;;;-8.40;100.00
15914;BME280;8055;51.930;8.840;2022-12-18T02:17:17;100841.19;;;-8.39;100.00
15914;BME280;8055;51.930;8.840;2022-12-18T02:20:08;100833.28;;;-8.40;100.00
15914;BME280;8055;51.930;8.840;2022-12-18T02:28:19;100844.06;;;-8.52;100.00
15914;BME280;8055;51.930;8.840;2022-12-18T02:30:49;100838.84;;;-8.54;100.00
15914;BME280;8055;51.930;8.840;2022-12-18T02:33:19;100837.97;;;-8.54;100.00
15914;BME280;8055;51.930;8.840;2022-12-18T02:35:46;100841.38;;;-8.49;100.00
15914;BME280;8055;51.930;8.840;2022-12-18T02:38:13;100839.63;;;-8.50;100.00
15914;BME280;8055;51.930;8.840;2022-12-18T02:40:40;100840.56;;;-8.53;100.00
15914;BME280;8055;51.930;8.840;2022-12-18T02:43:14;100847.47;;;-8.47;100.00
15914;BME280;8055;51.930;8.840;2022-12-18T02:45:47;100835.19;;;-8.47;100.00
15914;BME280;8055;51.930;8.840;2022-12-18T02:48:13;100822.94;;;-8.49;100.00
15914;BME280;8055;51.930;8.840;2022-12-18T02:50:45;100821.13;;;-8.46;100.00
15914;BME280;8055;51.930;8.840;2022-12-18T02:53:24;100823.78;;;-8.46;100.00
15914;BME280;8055;51.930;8.840;2022-12-18T02:56:07;100825.50;;;-8.46;100.00
15914;BME280;8055;51.930;8.840;2022-12-18T02:58:54;100832.53;;;-8.47;100.00
15914;BME280;8055;51.930;8.840;2022-12-18T03:02:45;100831.66;;;-8.46;100.00
15914;BME280;8055;51.930;8.840;2022-12-18T03:04:40;100835.25;;;-8.50;100.00
15914;BME280;8055;51.930;8.840;2022-12-18T03:07:12;100832.59;;;-8.50;100.00
15914;BME280;8055;51.930;8.840;2022-12-18T03:09:44;100840.50;;;-8.48;100.00
15914;BME280;8055;51.930;8.840;2022-12-18T03:12:15;100841.28;;;-8.45;100.00
15914;BME280;8055;51.930;8.840;2022-12-18T03:17:43;100847.38;;;-8.41;100.00
15914;BME280;8055;51.930;8.840;2022-12-18T03:20:14;100843.81;;;-8.39;100.00
15914;BME280;8055;51.930;8.840;2022-12-18T03:22:43;100841.09;;;-8.37;100.00
15914;BME280;8055;51.930;8.840;2022-12-18T03:25:13;100848.28;;;-8.44;100.00
15914;BME280;8055;51.930;8.840;2022-12-18T03:27:42;100844.91;;;-8.49;100.00
15914;BME280;8055;51.930;8.840;2022-12-18T03:30:10;100842.19;;;-8.46;100.00
15914;BME280;8055;51.930;8.840;2022-12-18T03:33:12;100843.13;;;-8.48;100.00
15914;BME280;8055;51.930;8.840;2022-12-18T03:35:40;100845.78;;;-8.50;100.00
15914;BME280;8055;51.930;8.840;2022-12-18T03:38:06;100844.94;;;-8.52;100.00
15914;BME280;8055;51.930;8.840;2022-12-18T03:43:20;100840.59;;;-8.54;100.00
15914;BME280;8055;51.930;8.840;2022-12-18T03:46:02;100843.25;;;-8.54;100.00
15914;BME280;8055;51.930;8.840;2022-12-18T03:48:34;100829.16;;;-8.52;100.00
15914;BME280;8055;51.930;8.840;2022-12-18T03:51:08;100822.06;;;-8.48;100.00
15914;BME280;8055;51.930;8.840;2022-12-18T03:53:55;100832.50;;;-8.44;100.00
15914;BME280;8055;51.930;8.840;2022-12-18T03:56:22;100843.03;;;-8.44;100.00
15914;BME280;8055;51.930;8.840;2022-12-18T03:58:52;100837.81;;;-8.47;100.00
15914;BME280;8055;51.930;8.840;2022-12-18T04:01:23;100842.16;;;-8.44;100.00
15914;BME280;8055;51.930;8.840;2022-12-18T04:03:51;100845.66;;;-8.44;100.00
15914;BME280;8055;51.930;8.840;2022-12-18T04:06:18;100845.69;;;-8.45;100.00
15914;BME280;8055;51.930;8.840;2022-12-18T04:08:43;100839.56;;;-8.46;100.00
15914;BME280;8055;51.930;8.840;2022-12-18T04:11:10;100840.25;;;-8.38;100.00
15914;BME280;8055;51.930;8.840;2022-12-18T04:13:36;100840.31;;;-8.41;100.00
15914;BME280;8055;51.930;8.840;2022-12-18T04:16:02;100833.19;;;-8.37;100.00
15914;BME280;8055;51.930;8.840;2022-12-18T04:18:28;100823.66;;;-8.40;100.00
15914;BME280;8055;51.930;8.840;2022-12-18T04:20:53;100825.25;;;-8.34;100.00
15914;BME280;8055;51.930;8.840;2022-12-18T04:23:19;100839.41;;;-8.38;100.00
15914;BME280;8055;51.930;8.840;2022-12-18T04:25:46;100836.78;;;-8.38;100.00
15914;BME280;8055;51.930;8.840;2022-12-18T04:28:12;100834.19;;;-8.40;100.00
15914;BME280;8055;51.930;8.840;2022-12-18T04:30:37;100841.09;;;-8.35;100.00
15914;BME280;8055;51.930;8.840;2022-12-18T04:33:03;100847.25;;;-8.36;100.00
15914;BME280;8055;51.930;8.840;2022-12-18T04:35:28;100849.00;;;-8.37;100.00
15914;BME280;8055;51.930;8.840;2022-12-18T04:37:54;100852.56;;;-8.38;100.00
15914;BME280;8055;51.930;8.840;2022-12-18T04:40:19;100858.56;;;-8.31;100.00
15914;BME280;8055;51.930;8.840;2022-12-18T04:42:44;100853.34;;;-8.34;100.00
15914;BME280;8055;51.930;8.840;2022-12-18T04:45:10;100862.06;;;-8.31;100.00
15914;BME280;8055;51.930;8.840;2022-12-18T04:47:35;100862.84;;;-8.26;100.00
15914;BME280;8055;51.930;8.840;2022-12-18T04:50:00;100865.53;;;-8.29;100.00
15914;BME280;8055;51.930;8.840;2022-12-18T04:52:26;100866.41;;;-8.28;100.00
15914;BME280;8055;51.930;8.840;2022-12-18T04:54:51;100854.97;;;-8.27;100.00
15914;BME280;8055;51.930;8.840;2022-12-18T04:57:16;100854.94;;;-8.26;100.00
15914;BME280;8055;51.930;8.840;2022-12-18T04:59:43;100851.38;;;-8.23;100.00
15914;BME280;8055;51.930;8.840;2022-12-18T05:02:09;100856.66;;;-8.25;100.00
15914;BME280;8055;51.930;8.840;2022-12-18T05:04:34;100860.16;;;-8.24;100.00
15914;BME280;8055;51.930;8.840;2022-12-18T05:06:59;100863.75;;;-8.27;100.00
15914;BME280;8055;51.930;8.840;2022-12-18T05:09:25;100860.09;;;-8.21;100.00
15914;BME280;8055;51.930;8.840;2022-12-18T05:11:50;100856.59;;;-8.20;100.00
15914;BME280;8055;51.930;8.840;2022-12-18T05:14:15;100864.44;;;-8.19;100.00
15914;BME280;8055;51.930;8.840;2022-12-18T05:16:41;100862.69;;;-8.18;100.00
15914;BME280;8055;51.930;8.840;2022-12-18T05:19:06;100842.56;;;-8.21;100.00
15914;BME280;8055;51.930;8.840;2022-12-18T05:21:31;100840.03;;;-8.27;100.00
15914;BME280;8055;51.930;8.840;2022-12-18T05:23:57;100835.69;;;-8.29;100.00
15914;BME280;8055;51.930;8.840;2022-12-18T05:26:22;100838.28;;;-8.26;100.00
15914;BME280;8055;51.930;8.840;2022-12-18T05:28:47;100834.84;;;-8.30;100.00
15914;BME280;8055;51.930;8.840;2022-12-18T05:31:13;100831.31;;;-8.30;100.00
15914;BME280;8055;51.930;8.840;2022-12-18T05:33:38;100832.22;;;-8.31;100.00
15914;BME280;8055;51.930;8.840;2022-12-18T05:36:06;100838.28;;;-8.28;100.00
15914;BME280;8055;51.930;8.840;2022-12-18T05:38:34;100838.28;;;-8.28;100.00
15914;BME280;8055;51.930;8.840;2022-12-18T05:41:00;100839.19;;;-8.29;100.00
15914;BME280;8055;51.930;8.840;2022-12-18T05:43:26;100852.31;;;-8.27;100.00
15914;BME280;8055;51.930;8.840;2022-12-18T05:45:51;100855.81;;;-8.25;100.00
15914;BME280;8055;51.930;8.840;2022-12-18T05:48:18;100858.44;;;-8.25;100.00
15914;BME280;8055;51.930;8.840;2022-12-18T05:50:45;100856.72;;;-8.28;100.00
15914;BME280;8055;51.930;8.840;2022-12-18T05:53:11;100854.03;;;-8.25;100.00
15914;BME280;8055;51.930;8.840;2022-12-18T05:55:38;100858.44;;;-8.25;100.00
15914;BME280;8055;51.930;8.840;2022-12-18T05:58:05;100851.38;;;-8.23;100.00
15914;BME280;8055;51.930;8.840;2022-12-18T06:00:33;100849.56;;;-8.21;100.00
15914;BME280;8055;51.930;8.840;2022-12-18T06:03:00;100840.00;;;-8.24;100.00
15914;BME280;8055;51.930;8.840;2022-12-18T06:05:25;100849.63;;;-8.24;100.00
15914;BME280;8055;51.930;8.840;2022-12-18T06:07:51;100858.31;;;-8.19;100.00
15914;BME280;8055;51.930;8.840;2022-12-18T06:10:16;100854.81;;;-8.20;100.00
15914;BME280;8055;51.930;8.840;2022-12-18T06:12:42;100859.38;;;-8.28;100.00
15914;BME280;8055;51.930;8.840;2022-12-18T06:15:07;100863.69;;;-8.24;100.00
15914;BME280;8055;51.930;8.840;2022-12-18T06:17:33;100866.41;;;-8.28;100.00
15914;BME280;8055;51.930;8.840;2022-12-18T06:19:59;100860.22;;;-8.27;100.00
15914;BME280;8055;51.930;8.840;2022-12-18T06:22:25;100863.81;;;-8.30;100.00
15914;BME280;8055;51.930;8.840;2022-12-18T06:24:51;100863.81;;;-8.31;100.00
15914;BME280;8055;51.930;8.840;2022-12-18T06:27:16;100863.00;;;-8.33;100.00
15914;BME280;8055;51.930;8.840;2022-12-18T06:29:42;100862.97;;;-8.32;100.00
15914;BME280;8055;51.930;8.840;2022-12-18T06:32:07;100872.66;;;-8.34;100.00
15914;BME280;8055;51.930;8.840;2022-12-18T06:34:33;100867.38;;;-8.32;100.00
15914;BME280;8055;51.930;8.840;2022-12-18T06:36:59;100870.03;;;-8.34;100.00
15914;BME280;8055;51.930;8.840;2022-12-18T06:39:27;100867.38;;;-8.32;100.00
15914;BME280;8055;51.930;8.840;2022-12-18T06:41:52;100874.38;;;-8.31;100.00
15914;BME280;8055;51.930;8.840;2022-12-18T06:44:18;100887.53;;;-8.31;100.00
15914;BME280;8055;51.930;8.840;2022-12-18T06:46:43;100875.28;;;-8.32;100.00
15914;BME280;8055;51.930;8.840;2022-12-18T06:49:08;100905.16;;;-8.35;100.00
15914;BME280;8055;51.930;8.840;2022-12-18T06:51:34;100888.50;;;-8.37;100.00
15914;BME280;8055;51.930;8.840;2022-12-18T06:54:00;100895.56;;;-8.38;100.00
15914;BME280;8055;51.930;8.840;2022-12-18T06:56:25;100888.59;;;-8.39;100.00
15914;BME280;8055;51.930;8.840;2022-12-18T06:58:51;100888.69;;;-8.45;100.00
15914;BME280;8055;51.930;8.840;2022-12-18T07:01:16;100892.19;;;-8.44;100.00
15914;BME280;8055;51.930;8.840;2022-12-18T07:03:43;100892.19;;;-8.44;100.00
15914;BME280;8055;51.930;8.840;2022-12-18T07:06:16;100890.47;;;-8.47;100.00
15914;BME280;8055;51.930;8.840;2022-12-18T07:08:42;100881.72;;;-8.47;100.00
15914;BME280;8055;51.930;8.840;2022-12-18T07:11:08;100886.06;;;-8.46;100.00
15914;BME280;8055;51.930;8.840;2022-12-18T07:13:33;100888.72;;;-8.46;100.00
15914;BME280;8055;51.930;8.840;2022-12-18T07:16:13;100897.47;;;-8.44;100.00
15914;BME280;8055;51.930;8.840;2022-12-18T07:18:39;100891.38;;;-8.48;100.00
15914;BME280;8055;51.930;8.840;2022-12-18T07:21:09;100893.97;;;-8.46;100.00
15914;BME280;8055;51.930;8.840;2022-12-18T07:23:35;100893.91;;;-8.42;100.00
15914;BME280;8055;51.930;8.840;2022-12-18T07:26:10;100891.28;;;-8.42;100.00
15914;BME280;8055;51.930;8.840;2022-12-18T07:28:36;100885.94;;;-8.39;100.00
15914;BME280;8055;51.930;8.840;2022-12-18T07:31:03;100890.34;;;-8.39;100.00
15914;BME280;8055;51.930;8.840;2022-12-18T07:33:29;100893.72;;;-8.34;100.00
15914;BME280;8055;51.930;8.840;2022-12-18T07:35:55;100896.41;;;-8.35;100.00
15914;BME280;8055;51.930;8.840;2022-12-18T07:38:21;100872.66;;;-8.34;100.00
15914;BME280;8055;51.930;8.840;2022-12-18T07:40:47;100884.91;;;-8.31;100.00
15914;BME280;8055;51.930;8.840;2022-12-18T07:43:12;100876.94;;;-8.27;100.00
15914;BME280;8055;51.930;8.840;2022-12-18T07:45:37;100871.59;;;-8.24;100.00
15914;BME280;8055;51.930;8.840;2022-12-18T07:48:03;100877.66;;;-8.20;100.00
15914;BME280;8055;51.930;8.840;2022-12-18T07:50:29;100872.34;;;-8.17;100.00
15914;BME280;8055;51.930;8.840;2022-12-18T07:52:54;100880.06;;;-8.08;100.00
15914;BME280;8055;51.930;8.840;2022-12-18T07:55:19;100873.88;;;-8.07;100.00
15914;BME280;8055;51.930;8.840;2022-12-18T07:57:45;100879.06;;;-8.02;100.00
15914;BME280;8055;51.930;8.840;2022-12-18T08:00:11;100873.72;;;-7.98;100.00
15914;BME280;8055;51.930;8.840;2022-12-18T08:02:37;100860.41;;;-7.92;100.00
15914;BME280;8055;51.930;8.840;2022-12-18T08:05:02;100854.94;;;-7.84;100.00
15914;BME280;8055;51.930;8.840;2022-12-18T08:07:28;100869.03;;;-7.85;100.00
15914;BME280;8055;51.930;8.840;2022-12-18T08:09:53;100866.22;;;-7.77;100.00
15914;BME280;8055;51.930;8.840;2022-12-18T08:12:19;100872.22;;;-7.69;100.00
15914;BME280;8055;51.930;8.840;2022-12-18T08:14:44;100869.44;;;-7.63;100.00
15914;BME280;8055;51.930;8.840;2022-12-18T08:17:09;100861.41;;;-7.57;100.00
15914;BME280;8055;51.930;8.840;2022-12-18T08:19:35;100869.25;;;-7.54;100.00
15914;BME280;8055;51.930;8.840;2022-12-18T08:22:00;100865.53;;;-7.45;100.00
15914;BME280;8055;51.930;8.840;2022-12-18T08:24:26;100861.91;;;-7.39;100.00
15914;BME280;8055;51.930;8.840;2022-12-18T08:26:51;100850.38;;;-7.37;100.00
15914;BME280;8055;51.930;8.840;2022-12-18T08:29:16;100852.88;;;-7.31;100.00
15914;BME280;8055;51.930;8.840;2022-12-18T08:31:42;100842.16;;;-7.23;100.00
15914;BME280;8055;51.930;8.840;2022-12-18T08:34:07;100844.59;;;-7.15;100.00
15914;BME280;8055;51.930;8.840;2022-12-18T08:36:33;100840.03;;;-7.09;100.00
15914;BME280;8055;51.930;8.840;2022-12-18T08:38:58;100838.16;;;-7.04;100.00
15914;BME280;8055;51.930;8.840;2022-12-18T08:41:24;100831.94;;;-7.01;100.00
15914;BME280;8055;51.930;8.840;2022-12-18T08:43:49;100830.03;;;-6.94;100.00
15914;BME280;8055;51.930;8.840;2022-12-18T08:46:38;100827.16;;;-6.85;100.00
15914;BME280;8055;51.930;8.840;2022-12-18T08:49:05;100839.28;;;-6.78;100.00
15914;BME280;8055;51.930;8.840;2022-12-18T08:51:30;100833.72;;;-6.67;100.00
15914;BME280;8055;51.930;8.840;2022-12-18T08:53:56;100824.66;;;-6.59;100.00
15914;BME280;8055;51.930;8.840;2022-12-18T08:56:21;100835.06;;;-6.53;100.00
15914;BME280;8055;51.930;8.840;2022-12-18T08:58:47;100838.38;;;-6.44;100.00
15914;BME280;8055;51.930;8.840;2022-12-18T09:01:13;100836.53;;;-6.41;100.00
15914;BME280;8055;51.930;8.840;2022-12-18T09:03:39;100839.88;;;-6.34;100.00
15914;BME280;8055;51.930;8.840;2022-12-18T09:06:05;100823.75;;;-6.25;100.00
15914;BME280;8055;51.930;8.840;2022-12-18T09:08:34;100820.88;;;-6.17;100.00
15914;BME280;8055;51.930;8.840;2022-12-18T09:10:59;100820.78;;;-6.14;100.00
15914;BME280;8055;51.930;8.840;2022-12-18T09:13:25;100825.09;;;-6.10;100.00
15914;BME280;8055;51.930;8.840;2022-12-18T09:15:52;100820.63;;;-6.08;100.00
15914;BME280;8055;51.930;8.840;2022-12-18T09:18:20;100831.06;;;-6.03;100.00
15914;BME280;8055;51.930;8.840;2022-12-18T09:20:45;100830.84;;;-5.96;100.00
15914;BME280;8055;51.930;8.840;2022-12-18T09:23:11;100828.81;;;-5.88;100.00
15914;BME280;8055;51.930;8.840;2022-12-18T09:25:37;100823.34;;;-5.82;100.00
15914;BME280;8055;51.930;8.840;2022-12-18T09:28:06;100829.28;;;-5.73;100.00
15914;BME280;8055;51.930;8.840;2022-12-18T09:30:37;100827.34;;;-5.68;100.00
15914;BME280;8055;51.930;8.840;2022-12-18T09:33:02;100836.91;;;-5.64;100.00
15914;BME280;8055;51.930;8.840;2022-12-18T09:35:28;100839.47;;;-5.61;100.00
15914;BME280;8055;51.930;8.840;2022-12-18T09:37:53;100842.06;;;-5.60;100.00
15914;BME280;8055;51.930;8.840;2022-12-18T09:40:22;100833.22;;;-5.59;100.00
15914;BME280;8055;51.930;8.840;2022-12-18T09:42:52;100842.81;;;-5.54;100.00
15914;BME280;8055;51.930;8.840;2022-12-18T09:45:19;100828.56;;;-5.50;100.00
15914;BME280;8055;51.930;8.840;2022-12-18T09:47:48;100829.41;;;-5.48;100.00
15914;BME280;8055;51.930;8.840;2022-12-18T09:50:34;100839.91;;;-5.47;100.00
15914;BME280;8055;51.930;8.840;2022-12-18T09:53:10;100838.00;;;-5.42;100.00
15914;BME280;8055;51.930;8.840;2022-12-18T09:55:43;100843.19;;;-5.39;100.00
15914;BME280;8055;51.930;8.840;2022-12-18T10:00:35;100843.03;;;-5.34;100.00
15914;BME280;8055;51.930;8.840;2022-12-18T10:03:14;100834.03;;;-5.28;100.00
15914;BME280;8055;51.930;8.840;2022-12-18T10:05:53;100832.00;;;-5.20;100.00
15914;BME280;8055;51.930;8.840;2022-12-18T10:19:43;100834.91;;;-4.75;100.00
15914;BME280;8055;51.930;8.840;2022-12-18T10:25:21;100833.00;;;-4.70;100.00
15914;BME280;8055;51.930;8.840;2022-12-18T10:27:52;100824.00;;;-4.66;100.00
15914;BME280;8055;51.930;8.840;2022-12-18T10:30:22;100814.03;;;-4.57;100.00
15914;BME280;8055;51.930;8.840;2022-12-18T10:32:48;100812.03;;;-4.51;100.00
15914;BME280;8055;51.930;8.840;2022-12-18T10:35:26;100791.34;;;-4.41;100.00
15914;BME280;8055;51.930;8.840;2022-12-18T10:38:25;100776.06;;;-4.34;100.00
15914;BME280;8055;51.930;8.840;2022-12-18T10:40:58;100748.69;;;-4.35;100.00
15914;BME280;8055;51.930;8.840;2022-12-18T10:43:35;100760.09;;;-4.33;100.00
15914;BME280;8055;51.930;8.840;2022-12-18T10:48:30;100751.06;;;-4.27;100.00
15914;BME280;8055;51.930;8.840;2022-12-18T10:50:56;100745.47;;;-4.20;100.00
15914;BME280;8055;51.930;8.840;2022-12-18T10:53:28;100749.00;;;-4.19;100.00
15914;BME280;8055;51.930;8.840;2022-12-18T10:55:57;100744.34;;;-4.14;100.00
15914;BME280;8055;51.930;8.840;2022-12-18T10:58:42;100751.41;;;-4.13;100.00
15914;BME280;8055;51.930;8.840;2022-12-18T11:01:17;100755.78;;;-4.12;100.00
15914;BME280;8055;51.930;8.840;2022-12-18T11:06:22;100755.75;;;-4.10;100.00
15914;BME280;8055;51.930;8.840;2022-12-18T11:09:01;100757.47;;;-4.09;100.00
15914;BME280;8055;51.930;8.840;2022-12-18T11:11:28;100750.44;;;-4.10;100.00
15914;BME280;8055;51.930;8.840;2022-12-18T11:14:16;100742.28;;;-4.06;100.00
15914;BME280;8055;51.930;8.840;2022-12-18T11:16:46;100740.47;;;-4.04;100.00
15914;BME280;8055;51.930;8.840;2022-12-18T11:21:52;100725.31;;;-4.02;100.00
15914;BME280;8055;51.930;8.840;2022-12-18T11:24:35;100711.91;;;-3.97;100.00
15914;BME280;8055;51.930;8.840;2022-12-18T11:27:05;100711.78;;;-3.94;100.00
15914;BME280;8055;51.930;8.840;2022-12-18T11:29:36;100691.16;;;-3.87;100.00
15914;BME280;8055;51.930;8.840;2022-12-18T11:34:57;100667.53;;;-3.72;100.00
15914;BME280;8055;51.930;8.840;2022-12-18T11:37:24;100669.06;;;-3.66;100.00
15914;BME280;8055;51.930;8.840;2022-12-18T11:40:05;100687.19;;;-3.55;100.00
15914;BME280;8055;51.930;8.840;2022-12-18T11:42:39;100670.16;;;-3.50;100.00
15914;BME280;8055;51.930;8.840;2022-12-18T11:47:45;100665.44;;;-3.43;100.00
15914;BME280;8055;51.930;8.840;2022-12-18T11:50:25;100660.81;;;-3.38;100.00
15914;BME280;8055;51.930;8.840;2022-12-18T11:52:51;100660.69;;;-3.35;100.00
15914;BME280;8055;51.930;8.840;2022-12-18T11:58:15;100655.91;;;-3.27;100.00
15914;BME280;8055;51.930;8.840;2022-12-18T12:06:31;100652.72;;;-3.14;100.00
15914;BME280;8055;51.930;8.840;2022-12-18T12:09:08;100638.38;;;-3.10;100.00
15914;BME280;8055;51.930;8.840;2022-12-18T12:16:47;100629.97;;;-3.01;100.00
15914;BME280;8055;51.930;8.840;2022-12-18T12:32:53;100617.38;;;-2.96;100.00
15914;BME280;8055;51.930;8.840;2022-12-18T12:38:36;100610.06;;;-2.91;100.00
15914;BME280;8055;51.930;8.840;2022-12-18T12:41:06;100612.84;;;-2.94;100.00
15914;BME280;8055;51.930;8.840;2022-12-18T12:43:56;100600.44;;;-2.93;100.00
15914;BME280;8055;51.930;8.840;2022-12-18T12:46:23;100612.06;;;-2.96;100.00
15914;BME280;8055;51.930;8.840;2022-12-18T12:48:58;100607.47;;;-2.92;100.00
15914;BME280;8055;51.930;8.840;2022-12-18T12:51:39;100614.44;;;-2.90;100.00
15914;BME280;8055;51.930;8.840;2022-12-18T12:54:15;100617.81;;;-2.86;100.00
15914;BME280;8055;51.930;8.840;2022-12-18T12:59:19;100608.84;;;-2.84;100.00
15914;BME280;8055;51.930;8.840;2022-12-18T13:05:02;100607.03;;;-2.83;100.00
15914;BME280;8055;51.930;8.840;2022-12-18T13:07:39;100607.75;;;-2.80;100.00
15914;BME280;8055;51.930;8.840;2022-12-18T13:13:07;100605.81;;;-2.76;100.00
15914;BME280;8055;51.930;8.840;2022-12-18T13:15:44;100605.78;;;-2.74;100.00
15914;BME280;8055;51.930;8.840;2022-12-18T13:23:27;100575.53;;;-2.72;100.00
15914;BME280;8055;51.930;8.840;2022-12-18T13:25:55;100577.19;;;-2.69;100.00
15914;BME280;8055;51.930;8.840;2022-12-18T13:31:00;100582.41;;;-2.68;100.00
15914;BME280;8055;51.930;8.840;2022-12-18T13:35:53;100570.84;;;-2.67;100.00
15914;BME280;8055;51.930;8.840;2022-12-18T13:45:50;100534.66;;;-2.69;100.00
15914;BME280;8055;51.930;8.840;2022-12-18T13:48:25;100525.75;;;-2.68;100.00
15914;BME280;8055;51.930;8.840;2022-12-18T13:51:03;100515.09;;;-2.68;100.00
15914;BME280;8055;51.930;8.840;2022-12-18T13:53:36;100523.09;;;-2.68;100.00
15914;BME280;8055;51.930;8.840;2022-12-18T13:56:04;100505.41;;;-2.69;100.00
15914;BME280;8055;51.930;8.840;2022-12-18T13:58:30;100508.94;;;-2.69;100.00
15914;BME280;8055;51.930;8.840;2022-12-18T14:00:56;100510.66;;;-2.68;100.00
15914;BME280;8055;51.930;8.840;2022-12-18T14:03:26;100502.66;;;-2.68;100.00
15914;BME280;8055;51.930;8.840;2022-12-18T14:05:59;100506.19;;;-2.67;100.00
15914;BME280;8055;51.930;8.840;2022-12-18T14:08:32;100507.97;;;-2.68;100.00
15914;BME280;8055;51.930;8.840;2022-12-18T14:10:58;100504.47;;;-2.68;100.00
15914;BME280;8055;51.930;8.840;2022-12-18T14:13:30;100500.81;;;-2.66;100.00
15914;BME280;8055;51.930;8.840;2022-12-18T14:15:57;100495.50;;;-2.66;100.00
15914;BME280;8055;51.930;8.840;2022-12-18T14:18:23;100495.50;;;-2.66;100.00
15914;BME280;8055;51.930;8.840;2022-12-18T14:20:52;100498.16;;;-2.66;100.00
15914;BME280;8055;51.930;8.840;2022-12-18T14:23:41;100506.97;;;-2.65;100.00
15914;BME280;8055;51.930;8.840;2022-12-18T14:26:27;100501.66;;;-2.65;100.00
15914;BME280;8055;51.930;8.840;2022-12-18T14:28:55;100504.38;;;-2.67;100.00
15914;BME280;8055;51.930;8.840;2022-12-18T14:31:26;100511.50;;;-2.67;100.00
15914;BME280;8055;51.930;8.840;2022-12-18T14:33:52;100503.47;;;-2.66;100.00
15914;BME280;8055;51.930;8.840;2022-12-18T14:36:21;100497.44;;;-2.69;100.00
15914;BME280;8055;51.930;8.840;2022-12-18T14:38:51;100507.03;;;-2.67;100.00
15914;BME280;8055;51.930;8.840;2022-12-18T14:41:19;100504.38;;;-2.67;100.00
15914;BME280;8055;51.930;8.840;2022-12-18T14:43:47;100514.00;;;-2.64;100.00